Seatiger — WDA9841 — position and weather

sailwx.info

Track history (hours):
 
Tides and Currents Weather Stations Pressure Air Temp Water Temp Dewpoint Dewpoint Depression Visibility Wind Speed Wind Dir Waves Ship Positions

Seatiger

Owner: GARBER BROS INC, MORGAN CITY, LA. More information available from US FCC via Universal Licensing System and Coast Guard Vessel Documentation Center.

Last reported at 2017-Nov-01 23:16 UTC. Time now 2017-Nov-21 10:20 UTC.
Position N 29°33' W 090°42'.
Warning: this ship's position is 19 days out of date.

Type: Tug. MMSI: 366869580.

Date/timePositionNaut miles runAvg speedWind from/ knotsBaromVisibWave heightAir tempDewpointWater temp
2017-Nov-01 23:16N 29°33' W 090°42'1 5.6
2017-Nov-01 23:00N 29°34' W 090°43'1 1.2
2017-Nov-01 22:30N 29°34' W 090°44'0 0.1
2017-Nov-01 22:00N 29°34' W 090°44'0 0.0
2017-Nov-01 21:30N 29°34' W 090°44'0 0.0
2017-Nov-01 21:00N 29°34' W 090°44'0 0.1
2017-Nov-01 20:30N 29°34' W 090°44'0 0.0
2017-Nov-01 20:00N 29°34' W 090°44'0 0.0
2017-Nov-01 19:30N 29°34' W 090°44'0 0.5
2017-Nov-01 19:00N 29°34' W 090°43'2 4.4
2017-Nov-01 18:30N 29°33' W 090°41'0 0.0
2017-Nov-01 02:00N 29°33' W 090°41'0 0.0
2017-Nov-01 01:30N 29°33' W 090°41'0 0.0
2017-Nov-01 01:00N 29°33' W 090°41'2 4.4
2017-Nov-01 00:30N 29°34' W 090°43'3 5.1
2017-Nov-01 00:00N 29°37' W 090°41'2 3.0
2017-Oct-31 23:30N 29°36' W 090°40'0 0.4
2017-Oct-31 23:00N 29°36' W 090°40'10 0.4
2017-Oct-30 22:47N 29°32' W 090°51'1 3.6
2017-Oct-30 22:30N 29°32' W 090°50'2 3.5
2017-Oct-30 22:00N 29°32' W 090°48'2 3.3
2017-Oct-30 21:30N 29°32' W 090°46'2 3.3
2017-Oct-30 21:00N 29°34' W 090°45'2 3.0
2017-Oct-30 20:30N 29°34' W 090°43'1 2.1
2017-Oct-30 20:00N 29°33' W 090°42'2 3.4
2017-Oct-30 19:30N 29°32' W 090°42'2 3.5
2017-Oct-30 19:00N 29°30' W 090°43'2 3.5
2017-Oct-30 18:29N 29°28' W 090°43'5 3.3
2017-Oct-30 17:05N 29°24' W 090°44'0 3.6
2017-Oct-30 17:00N 29°24' W 090°44'2 3.5
2017-Oct-30 16:30N 29°24' W 090°46'1 1.5
2017-Oct-30 15:55N 29°25' W 090°47'1 2.4
2017-Oct-30 15:27N 29°25' W 090°48'8 2.8
2017-Oct-30 12:47N 29°22' W 090°56'1 1.9
2017-Oct-30 12:29N 29°22' W 090°57'1 2.4
2017-Oct-30 11:58N 29°22' W 090°58'13 0.9
2017-Oct-29 22:09N 29°24' W 090°44'1 7.9
2017-Oct-29 21:58N 29°26' W 090°43'4 7.8
2017-Oct-29 21:30N 29°29' W 090°43'4 7.5
2017-Oct-29 21:00N 29°33' W 090°42'3 5.4
2017-Oct-29 20:30N 29°36' W 090°43'2 4.3
2017-Oct-29 20:00N 29°36' W 090°40'3 6.3
2017-Oct-29 19:30N 29°35' W 090°37'3 5.7
2017-Oct-29 19:00N 29°34' W 090°34'2 0.5
2017-Oct-29 14:51N 29°33' W 090°32'0 0.0
2017-Oct-29 14:30N 29°33' W 090°32'0 0.0
2017-Oct-29 12:50N 29°33' W 090°32'0 0.0
2017-Oct-29 12:29N 29°33' W 090°32'0 0.0
2017-Oct-29 11:55N 29°33' W 090°32'0 0.0
2017-Oct-29 10:57N 29°33' W 090°32'0 0.0
2017-Oct-29 10:30N 29°33' W 090°32'0 0.0
2017-Oct-29 09:48N 29°33' W 090°32'0 0.0
2017-Oct-29 09:30N 29°33' W 090°32'0 0.0
2017-Oct-29 08:58N 29°33' W 090°32'0 0.0
2017-Oct-29 08:28N 29°33' W 090°32'0 0.0
2017-Oct-29 08:00N 29°33' W 090°32'0 0.0
2017-Oct-29 07:30N 29°33' W 090°32'0 0.0
2017-Oct-29 06:47N 29°33' W 090°32'0 0.0
2017-Oct-29 06:23N 29°33' W 090°32'0 0.0
2017-Oct-29 05:50N 29°33' W 090°32'0 0.0
2017-Oct-29 05:25N 29°33' W 090°32'15 0.8
2017-Oct-28 09:23N 29°22' W 090°44'2 4.6
2017-Oct-28 09:00N 29°24' W 090°45'3 5.5
2017-Oct-28 08:29N 29°25' W 090°48'5 0.1
2017-Oct-26 14:12N 29°22' W 090°44'0 0.0
2017-Oct-26 13:19N 29°22' W 090°44'0 0.0
2017-Oct-26 12:46N 29°22' W 090°44'0 0.0
2017-Oct-26 12:30N 29°22' W 090°44'0 0.0
2017-Oct-26 09:42N 29°22' W 090°44'0 0.0
2017-Oct-26 09:30N 29°22' W 090°44'0 0.0
2017-Oct-26 08:58N 29°22' W 090°44'0 0.0
2017-Oct-26 08:29N 29°22' W 090°44'2 3.4
2017-Oct-26 08:00N 29°24' W 090°44'3 5.8
2017-Oct-26 07:30N 29°25' W 090°47'2 4.9
2017-Oct-26 07:00N 29°25' W 090°50'2 4.7
2017-Oct-26 06:30N 29°24' W 090°52'4 4.7
2017-Oct-26 05:39N 29°22' W 090°56'10 0.3
2017-Oct-24 12:38N 29°22' W 090°44'0 0.0
2017-Oct-24 12:29N 29°22' W 090°44'0 0.0
2017-Oct-24 11:20N 29°22' W 090°44'0 0.2
2017-Oct-24 11:00N 29°22' W 090°44'0 0.0
2017-Oct-24 10:30N 29°22' W 090°44'0 0.0
2017-Oct-24 10:00N 29°22' W 090°44'0 0.0
2017-Oct-24 09:30N 29°22' W 090°44'  
Track history (hours):
 
Tides and Currents Weather Stations Pressure Air Temp Water Temp Dewpoint Dewpoint Depression Visibility Wind Speed Wind Dir Waves Ship Positions

Seatiger

Owner: GARBER BROS INC, MORGAN CITY, LA. More information available from US FCC via Universal Licensing System and Coast Guard Vessel Documentation Center.

Last reported at 2017-Nov-01 23:16 UTC. Time now 2017-Nov-21 10:20 UTC.
Position N 29°33' W 090°42'.
Warning: this ship's position is 19 days out of date.

Type: Tug. MMSI: 366869580.

Date/timePositionNaut miles runAvg speedWind from/ knotsBaromVisibWave heightAir tempDewpointWater temp
2017-Nov-01 23:16N 29°33' W 090°42'1 5.6
2017-Nov-01 23:00N 29°34' W 090°43'1 1.2
2017-Nov-01 22:30N 29°34' W 090°44'0 0.1
2017-Nov-01 22:00N 29°34' W 090°44'0 0.0
2017-Nov-01 21:30N 29°34' W 090°44'0 0.0
2017-Nov-01 21:00N 29°34' W 090°44'0 0.1
2017-Nov-01 20:30N 29°34' W 090°44'0 0.0
2017-Nov-01 20:00N 29°34' W 090°44'0 0.0
2017-Nov-01 19:30N 29°34' W 090°44'0 0.5
2017-Nov-01 19:00N 29°34' W 090°43'2 4.4
2017-Nov-01 18:30N 29°33' W 090°41'0 0.0
2017-Nov-01 02:00N 29°33' W 090°41'0 0.0
2017-Nov-01 01:30N 29°33' W 090°41'0 0.0
2017-Nov-01 01:00N 29°33' W 090°41'2 4.4
2017-Nov-01 00:30N 29°34' W 090°43'3 5.1
2017-Nov-01 00:00N 29°37' W 090°41'2 3.0
2017-Oct-31 23:30N 29°36' W 090°40'0 0.4
2017-Oct-31 23:00N 29°36' W 090°40'10 0.4
2017-Oct-30 22:47N 29°32' W 090°51'1 3.6
2017-Oct-30 22:30N 29°32' W 090°50'2 3.5
2017-Oct-30 22:00N 29°32' W 090°48'2 3.3
2017-Oct-30 21:30N 29°32' W 090°46'2 3.3
2017-Oct-30 21:00N 29°34' W 090°45'2 3.0
2017-Oct-30 20:30N 29°34' W 090°43'1 2.1
2017-Oct-30 20:00N 29°33' W 090°42'2 3.4
2017-Oct-30 19:30N 29°32' W 090°42'2 3.5
2017-Oct-30 19:00N 29°30' W 090°43'2 3.5
2017-Oct-30 18:29N 29°28' W 090°43'5 3.3
2017-Oct-30 17:05N 29°24' W 090°44'0 3.6
2017-Oct-30 17:00N 29°24' W 090°44'2 3.5
2017-Oct-30 16:30N 29°24' W 090°46'1 1.5
2017-Oct-30 15:55N 29°25' W 090°47'1 2.4
2017-Oct-30 15:27N 29°25' W 090°48'8 2.8
2017-Oct-30 12:47N 29°22' W 090°56'1 1.9
2017-Oct-30 12:29N 29°22' W 090°57'1 2.4
2017-Oct-30 11:58N 29°22' W 090°58'13 0.9
2017-Oct-29 22:09N 29°24' W 090°44'1 7.9
2017-Oct-29 21:58N 29°26' W 090°43'4 7.8
2017-Oct-29 21:30N 29°29' W 090°43'4 7.5
2017-Oct-29 21:00N 29°33' W 090°42'3 5.4
2017-Oct-29 20:30N 29°36' W 090°43'2 4.3
2017-Oct-29 20:00N 29°36' W 090°40'3 6.3
2017-Oct-29 19:30N 29°35' W 090°37'3 5.7
2017-Oct-29 19:00N 29°34' W 090°34'2 0.5
2017-Oct-29 14:51N 29°33' W 090°32'0 0.0
2017-Oct-29 14:30N 29°33' W 090°32'0 0.0
2017-Oct-29 12:50N 29°33' W 090°32'0 0.0
2017-Oct-29 12:29N 29°33' W 090°32'0 0.0
2017-Oct-29 11:55N 29°33' W 090°32'0 0.0
2017-Oct-29 10:57N 29°33' W 090°32'0 0.0
2017-Oct-29 10:30N 29°33' W 090°32'0 0.0
2017-Oct-29 09:48N 29°33' W 090°32'0 0.0
2017-Oct-29 09:30N 29°33' W 090°32'0 0.0
2017-Oct-29 08:58N 29°33' W 090°32'0 0.0
2017-Oct-29 08:28N 29°33' W 090°32'0 0.0
2017-Oct-29 08:00N 29°33' W 090°32'0 0.0
2017-Oct-29 07:30N 29°33' W 090°32'0 0.0
2017-Oct-29 06:47N 29°33' W 090°32'0 0.0
2017-Oct-29 06:23N 29°33' W 090°32'0 0.0
2017-Oct-29 05:50N 29°33' W 090°32'0 0.0
2017-Oct-29 05:25N 29°33' W 090°32'15 0.8
2017-Oct-28 09:23N 29°22' W 090°44'2 4.6
2017-Oct-28 09:00N 29°24' W 090°45'3 5.5
2017-Oct-28 08:29N 29°25' W 090°48'5 0.1
2017-Oct-26 14:12N 29°22' W 090°44'0 0.0
2017-Oct-26 13:19N 29°22' W 090°44'0 0.0
2017-Oct-26 12:46N 29°22' W 090°44'0 0.0
2017-Oct-26 12:30N 29°22' W 090°44'0 0.0
2017-Oct-26 09:42N 29°22' W 090°44'0 0.0
2017-Oct-26 09:30N 29°22' W 090°44'0 0.0
2017-Oct-26 08:58N 29°22' W 090°44'0 0.0
2017-Oct-26 08:29N 29°22' W 090°44'2 3.4
2017-Oct-26 08:00N 29°24' W 090°44'3 5.8
2017-Oct-26 07:30N 29°25' W 090°47'2 4.9
2017-Oct-26 07:00N 29°25' W 090°50'2 4.7
2017-Oct-26 06:30N 29°24' W 090°52'4 4.7
2017-Oct-26 05:39N 29°22' W 090°56'10 0.3
2017-Oct-24 12:38N 29°22' W 090°44'0 0.0
2017-Oct-24 12:29N 29°22' W 090°44'0 0.0
2017-Oct-24 11:20N 29°22' W 090°44'0 0.2
2017-Oct-24 11:00N 29°22' W 090°44'0 0.0
2017-Oct-24 10:30N 29°22' W 090°44'0 0.0
2017-Oct-24 10:00N 29°22' W 090°44'0 0.0
2017-Oct-24 09:30N 29°22' W 090°44'  

Dump ship's entire track history